createdAt,value
2019-04-10T00:02:59.540Z,62.81
2019-04-10T00:08:01.888Z,63.08
2019-04-10T00:13:04.515Z,63.06
2019-04-10T00:18:07.503Z,63.13
2019-04-10T00:23:11.305Z,63.27
2019-04-10T00:28:13.160Z,64.20
2019-04-10T00:33:16.613Z,64.68
2019-04-10T00:38:19.766Z,64.45
2019-04-10T00:43:22.582Z,65.02
2019-04-10T00:48:24.680Z,64.52
2019-04-10T00:53:27.331Z,64.90
2019-04-10T00:58:30.165Z,64.87
2019-04-10T01:03:46.732Z,65.18
2019-04-10T01:08:48.917Z,65.45
2019-04-10T01:13:51.714Z,66.00
2019-04-10T01:18:53.677Z,65.54
2019-04-10T01:23:55.583Z,65.87
2019-04-10T01:28:57.570Z,65.92
2019-04-10T01:34:01.068Z,65.82
2019-04-10T01:39:07.315Z,66.22
2019-04-10T01:44:11.040Z,66.28
2019-04-10T01:49:15.582Z,66.32
2019-04-10T01:54:17.715Z,66.28
2019-04-10T01:59:21.594Z,66.84
2019-04-10T02:04:24.765Z,66.62
2019-04-10T02:09:27.622Z,67.05
2019-04-10T02:14:30.004Z,66.80
2019-04-10T02:19:32.346Z,66.90
2019-04-10T02:24:34.263Z,67.44
2019-04-10T02:29:36.136Z,67.48
2019-04-10T02:34:39.373Z,67.34
2019-04-10T02:39:47.022Z,67.53
2019-04-10T02:44:45.889Z,67.72
2019-04-10T02:49:49.207Z,68.05
2019-04-10T02:54:51.342Z,68.35
2019-04-10T02:59:55.771Z,68.67
2019-04-10T03:04:59.230Z,68.58
2019-04-10T03:15:17.000Z,69.19
2019-04-10T03:20:20.366Z,68.75
2019-04-10T03:25:22.493Z,69.35
2019-04-10T03:30:24.743Z,69.19
2019-04-10T03:35:32.790Z,69.93
2019-04-10T03:40:35.468Z,70.23
2019-04-10T03:45:37.436Z,70.08
2019-04-10T03:50:39.618Z,70.02
2019-04-10T03:55:41.599Z,70.11
2019-04-10T04:00:44.814Z,70.87
2019-04-10T04:05:46.808Z,70.95
2019-04-10T04:10:49.028Z,70.69
2019-04-10T04:15:51.053Z,71.13
2019-04-10T04:20:53.069Z,70.83
2019-04-10T04:25:55.172Z,70.56
2019-04-10T04:30:57.092Z,70.98
2019-04-10T04:35:59.913Z,71.30
2019-04-10T04:41:02.419Z,71.76
2019-04-10T04:46:04.372Z,71.12
2019-04-10T04:51:06.734Z,71.12
2019-04-10T04:56:09.493Z,71.19
2019-04-10T05:01:12.586Z,71.06
2019-04-10T05:06:14.613Z,70.62
2019-04-10T05:11:16.484Z,71.81
2019-04-10T05:16:18.768Z,72.32
2019-04-10T05:21:21.339Z,73.09
2019-04-10T05:26:23.317Z,73.03
2019-04-10T05:31:25.611Z,72.59
2019-04-10T05:36:27.624Z,72.31
2019-04-10T05:41:29.532Z,72.69
2019-04-10T05:46:32.495Z,71.56
2019-04-10T05:51:34.603Z,71.94
2019-04-10T05:56:36.522Z,72.17
2019-04-10T06:01:41.179Z,72.61
2019-04-10T06:06:44.305Z,72.15
2019-04-10T06:11:47.381Z,71.85
2019-04-10T06:16:49.352Z,71.92
2019-04-10T06:21:52.434Z,71.82
2019-04-10T06:26:54.457Z,72.08
2019-04-10T06:31:56.980Z,72.26
2019-04-10T06:36:59.863Z,73.65
2019-04-10T06:42:02.525Z,74.32
2019-04-10T06:47:04.578Z,74.32
2019-04-10T06:52:06.493Z,73.86
2019-04-10T06:57:08.400Z,72.13
2019-04-10T07:02:16.631Z,71.53
2019-04-10T07:07:18.118Z,71.53
2019-04-10T07:12:23.784Z,69.67
2019-04-10T07:17:25.044Z,67.91
2019-04-10T07:22:27.167Z,69.21
2019-04-10T07:27:33.580Z,64.42
2019-04-10T07:32:33.911Z,61.19
2019-04-10T07:37:36.277Z,59.94
2019-04-10T07:42:41.318Z,60.34
2019-04-10T07:47:42.127Z,58.51
2019-04-10T07:52:43.975Z,58.08
2019-04-10T07:57:47.742Z,55.96
2019-04-10T08:02:49.674Z,54.88
2019-04-10T08:07:55.962Z,54.23
2019-04-10T08:12:58.146Z,53.05
2019-04-10T08:18:00.450Z,51.72
2019-04-10T08:23:03.592Z,50.08
2019-04-10T08:28:05.746Z,50.48
2019-04-10T08:33:07.900Z,46.44
2019-04-10T08:38:09.866Z,45.54
2019-04-10T08:43:11.853Z,43.82
2019-04-10T08:48:13.757Z,43.33
2019-04-10T08:53:15.653Z,42.69
2019-04-10T08:58:18.750Z,42.73
2019-04-10T09:03:20.759Z,40.86
2019-04-10T09:08:22.681Z,40.90
2019-04-10T09:13:24.593Z,40.21
2019-04-10T09:18:27.364Z,38.63
2019-04-10T09:23:39.091Z,38.13
2019-04-10T09:28:33.321Z,37.84
2019-04-10T09:33:35.300Z,37.92
2019-04-10T09:38:37.333Z,36.32
2019-04-10T09:43:40.033Z,36.49
2019-04-10T09:48:42.186Z,37.61
2019-04-10T09:53:44.039Z,36.40
2019-04-10T09:58:46.810Z,36.03
2019-04-10T10:03:48.842Z,36.71
2019-04-10T10:08:50.904Z,34.39
2019-04-10T10:13:52.794Z,35.14
2019-04-10T10:18:54.671Z,35.61
2019-04-10T10:23:56.570Z,33.10
2019-04-10T10:28:58.653Z,35.34
2019-04-10T10:34:01.809Z,36.46
2019-04-10T10:39:13.463Z,34.72
2019-04-10T10:44:17.523Z,32.52
2019-04-10T10:49:20.531Z,32.08
2019-04-10T10:54:23.118Z,32.53
2019-04-10T10:59:25.280Z,31.60
2019-04-10T11:04:27.402Z,31.07
2019-04-10T11:09:30.187Z,30.10
2019-04-10T11:14:32.237Z,31.33
2019-04-10T11:19:35.520Z,29.38
2019-04-10T11:24:39.391Z,28.84
2019-04-10T11:29:42.681Z,29.72
2019-04-10T11:34:46.635Z,29.79
2019-04-10T11:39:50.734Z,31.79
2019-04-10T11:44:54.423Z,31.19
2019-04-10T11:49:58.587Z,30.42
2019-04-10T11:55:08.756Z,28.80
2019-04-10T12:00:08.901Z,29.29
2019-04-10T12:05:14.166Z,27.71
2019-04-10T12:15:17.308Z,27.74
2019-04-10T12:20:20.889Z,29.06
2019-04-10T12:25:22.961Z,27.87
2019-04-10T12:30:25.067Z,26.59
2019-04-10T12:35:27.351Z,26.28
2019-04-10T12:40:29.286Z,25.58
2019-04-10T12:45:32.638Z,26.47
2019-04-10T12:50:34.692Z,26.38
2019-04-10T12:55:36.797Z,26.48
2019-04-10T13:00:38.812Z,26.88
2019-04-10T13:05:41.168Z,25.83
2019-04-10T13:10:43.609Z,27.39
2019-04-10T13:15:45.630Z,24.93
2019-04-10T13:20:48.352Z,25.30
2019-04-10T13:25:58.323Z,24.94
2019-04-10T13:30:56.606Z,24.45
2019-04-10T13:35:58.098Z,25.00
2019-04-10T13:41:00.076Z,26.25
2019-04-10T13:46:02.623Z,24.67
2019-04-10T13:51:05.364Z,24.95
2019-04-10T13:56:08.653Z,23.83
2019-04-10T14:01:15.467Z,21.49
2019-04-10T14:06:17.450Z,23.53
2019-04-10T14:11:19.558Z,26.52
2019-04-10T14:16:22.393Z,26.25
2019-04-10T14:21:25.575Z,25.12
2019-04-10T14:26:53.721Z,23.62
2019-04-10T14:32:00.769Z,24.25
2019-04-10T14:37:05.192Z,24.03
2019-04-10T14:42:08.565Z,24.91
2019-04-10T14:47:13.346Z,26.84
2019-04-10T14:52:14.996Z,23.53
2019-04-10T14:57:16.975Z,20.92
2019-04-10T15:02:19.144Z,22.03
2019-04-10T15:07:21.852Z,21.39
2019-04-10T15:12:24.690Z,21.98
2019-04-10T15:17:26.746Z,21.25
2019-04-10T15:22:34.473Z,19.25
2019-04-10T15:27:37.511Z,19.12
2019-04-10T15:32:40.025Z,21.12
2019-04-10T15:37:42.318Z,22.24
2019-04-10T15:42:44.395Z,20.58
2019-04-10T15:47:52.658Z,19.89
2019-04-10T15:52:51.473Z,20.06
2019-04-10T15:57:57.893Z,21.08
2019-04-10T16:02:58.549Z,20.37
2019-04-10T16:08:00.826Z,23.74
2019-04-10T16:13:10.116Z,22.90
2019-04-10T16:18:15.636Z,19.56
2019-04-10T16:23:31.602Z,19.89
2019-04-10T16:28:33.623Z,20.83
2019-04-10T16:33:35.805Z,23.40
2019-04-10T16:38:38.540Z,25.12
2019-04-10T16:43:40.713Z,25.01
2019-04-10T16:48:42.918Z,24.01
2019-04-10T16:53:45.487Z,21.35
2019-04-10T16:58:47.947Z,21.26
2019-04-10T17:03:50.365Z,25.22
2019-04-10T17:08:54.387Z,26.85
2019-04-10T17:13:57.204Z,28.55
2019-04-10T17:18:59.321Z,28.51
2019-04-10T17:24:01.262Z,28.50
2019-04-10T17:29:03.365Z,28.40
2019-04-10T17:34:06.126Z,29.11
2019-04-10T17:39:11.217Z,31.07
2019-04-10T17:44:13.770Z,32.56
2019-04-10T17:49:17.020Z,33.56
2019-04-10T17:54:20.014Z,33.63
2019-04-10T17:59:22.508Z,33.96
2019-04-10T18:04:24.653Z,34.02
2019-04-10T18:09:27.079Z,34.53
2019-04-10T18:14:29.179Z,35.81
2019-04-10T18:19:32.413Z,35.97
2019-04-10T18:24:34.557Z,36.28
2019-04-10T18:29:36.475Z,36.24
2019-04-10T18:34:38.493Z,36.46
2019-04-10T18:39:40.876Z,37.34
2019-04-10T18:44:43.077Z,37.54
2019-04-10T18:49:45.514Z,38.17
2019-04-10T18:54:47.889Z,38.47
2019-04-10T19:00:03.337Z,39.05
2019-04-10T19:05:16.968Z,39.66
2019-04-10T19:10:19.891Z,39.27
2019-04-10T19:15:22.442Z,39.52
2019-04-10T19:20:24.890Z,40.19
2019-04-10T19:25:27.433Z,41.30
2019-04-10T19:30:35.779Z,41.75
2019-04-10T19:35:37.711Z,41.62
2019-04-10T19:40:40.386Z,41.97
2019-04-10T19:45:43.806Z,42.39
2019-04-10T19:50:46.088Z,42.94
2019-04-10T19:55:48.324Z,43.93
2019-04-10T20:00:50.643Z,43.04
2019-04-10T20:05:53.468Z,43.77
2019-04-10T20:10:55.572Z,44.11
2019-04-10T20:15:58.627Z,43.72
2019-04-10T20:21:01.710Z,44.82
2019-04-10T20:26:05.054Z,44.64
2019-04-10T20:31:10.716Z,45.47
2019-04-10T20:36:13.040Z,45.07
2019-04-10T20:41:16.208Z,44.65
2019-04-10T20:46:18.508Z,45.70
2019-04-10T20:51:20.727Z,45.23
2019-04-10T20:56:22.675Z,45.20
2019-04-10T21:01:24.853Z,44.80
2019-04-10T21:06:27.138Z,44.85
2019-04-10T21:11:29.244Z,44.87
2019-04-10T21:16:31.522Z,45.11
2019-04-10T21:21:33.404Z,44.67
2019-04-10T21:26:36.728Z,44.80
2019-04-10T21:31:48.347Z,44.97
2019-04-10T21:36:51.187Z,45.47
2019-04-10T21:41:54.256Z,45.90
2019-04-10T21:46:57.153Z,46.27
2019-04-10T21:52:00.395Z,46.40
2019-04-10T21:57:02.295Z,46.44
2019-04-10T22:02:04.875Z,46.76
2019-04-10T22:07:27.778Z,46.68
2019-04-10T22:12:34.162Z,47.18
2019-04-10T22:17:34.175Z,48.39
2019-04-10T22:22:37.171Z,47.73
2019-04-10T22:27:39.680Z,48.31
2019-04-10T22:32:42.859Z,48.33
2019-04-10T22:37:46.244Z,48.55
2019-04-10T22:42:49.778Z,49.01
2019-04-10T22:47:52.162Z,49.95
2019-04-10T22:52:54.974Z,50.06
2019-04-10T22:57:57.072Z,50.12
2019-04-10T23:03:00.713Z,50.13
2019-04-10T23:08:03.356Z,49.76
2019-04-10T23:13:07.522Z,49.75
2019-04-10T23:18:10.241Z,50.59
2019-04-10T23:23:12.351Z,50.65
2019-04-10T23:28:14.245Z,50.78
2019-04-10T23:33:16.106Z,50.53
2019-04-10T23:38:18.137Z,50.72
2019-04-10T23:43:22.340Z,51.68
2019-04-10T23:48:24.948Z,51.37
2019-04-10T23:53:26.854Z,51.78
2019-04-10T23:58:29.749Z,51.75
